Time;durP1;ratioP1;P1;durP2;ratioP2;P2;SDS_P1;SDS_P2;PMS_P1;PMS_P2;Temp;Humidity;BMP_temperature;BMP_pressure;BME280_temperature;BME280_humidity;BME280_pressure;Samples;Min_cycle;Max_cycle;Signal;HPM_P1;HPM_P2
2021/11/03 00:02:14;;;;;;;;;;;;;;;13.20;64.77;99437.50;4863597;28;98295;-66
2021/11/03 00:04:40;;;;;;;;;;;;;;;13.19;64.76;99435.06;4863866;28;98563;-58
2021/11/03 00:07:07;;;;;;;;;;;;;;;13.20;64.88;99445.59;4845466;28;98071;-58
2021/11/03 00:09:33;;;;;;;;;;;;;;;13.20;64.77;99444.78;4864832;28;98312;-58
2021/11/03 00:11:58;;;;;;;;;;;;;;;13.21;65.05;99443.69;4879646;28;128135;-58
2021/11/03 00:14:24;;;;;;;;;;;;;;;13.21;65.07;99447.19;4837791;28;128376;-58
2021/11/03 00:16:50;;;;;;;;;;;;;;;13.22;65.03;99439.88;4862319;28;128613;-66
2021/11/03 00:19:16;;;;;;;;;;;;;;;13.21;64.76;99441.00;4861104;28;117305;-66
2021/11/03 00:21:42;;;;;;;;;;;;;;;13.20;64.88;99445.59;4864593;28;122323;-57
2021/11/03 00:24:08;;;;;;;;;;;;;;;13.19;64.75;99440.50;4870584;28;122783;-66
2021/11/03 00:26:34;;;;;;;;;;;;;;;13.20;65.21;99447.50;4869069;28;114961;-66
2021/11/03 00:29:00;;;;;;;;;;;;;;;13.18;64.72;99439.69;4866202;28;118433;-66
2021/11/03 00:31:26;;;;;;;;;;;;;;;13.19;65.05;99438.56;4865768;28;98193;-59
2021/11/03 00:33:52;;;;;;;;;;;;;;;13.18;64.99;99439.69;4877798;28;127291;-66
2021/11/03 00:36:18;;;;;;;;;;;;;;;13.18;64.79;99438.91;4884524;28;97967;-59
2021/11/03 00:38:44;;;;;;;;;;;;;;;13.18;64.89;99438.91;4884701;28;97863;-58
2021/11/03 00:41:10;;;;;;;;;;;;;;;13.18;64.91;99444.31;4883367;28;128179;-57
2021/11/03 00:43:36;;;;;;;;;;;;;;;13.17;65.02;99442.72;4883825;28;127114;-58
2021/11/03 00:46:02;;;;;;;;;;;;;;;13.17;65.16;99440.81;4865626;28;128353;-57
2021/11/03 00:48:28;;;;;;;;;;;;;;;13.16;65.06;99435.69;4884621;28;98636;-59
2021/11/03 00:50:54;;;;;;;;;;;;;;;13.17;64.84;99440.00;4882256;28;105628;-58
2021/11/03 00:53:20;;;;;;;;;;;;;;;13.17;64.85;99434.59;4864047;28;98959;-63
2021/11/03 00:55:46;;;;;;;;;;;;;;;13.17;64.88;99435.41;4865564;28;98574;-66
2021/11/03 00:58:12;;;;;;;;;;;;;;;13.16;65.15;99433.78;4872434;28;117063;-67
2021/11/03 01:00:38;;;;;;;;;;;;;;;13.18;65.00;99433.50;4881235;28;98432;-58
2021/11/03 01:03:04;;;;;;;;;;;;;;;13.18;65.08;99431.56;4865742;28;99226;-58
2021/11/03 01:05:30;;;;;;;;;;;;;;;13.19;64.86;99426.97;4847832;28;97908;-67
2021/11/03 01:07:56;;;;;;;;;;;;;;;13.18;64.87;99428.88;4847327;28;117546;-67
2021/11/03 01:10:24;;;;;;;;;;;;;;;13.19;64.99;99425.03;4865385;28;97976;-58
2021/11/03 01:12:50;;;;;;;;;;;;;;;13.20;64.97;99420.44;4832536;28;100607;-63
2021/11/03 01:15:21;;;;;;;;;;;;;;;13.21;64.95;99422.84;4854106;28;98391;-58
2021/11/03 01:17:47;;;;;;;;;;;;;;;13.21;64.75;99420.13;4866742;28;104923;-66
2021/11/03 01:20:13;;;;;;;;;;;;;;;13.21;65.09;99411.22;4882622;28;128647;-66
2021/11/03 01:22:39;;;;;;;;;;;;;;;13.22;64.82;99413.63;4880233;28;99599;-58
2021/11/03 01:25:06;;;;;;;;;;;;;;;13.23;64.93;99417.16;4847258;28;125585;-66
2021/11/03 01:27:32;;;;;;;;;;;;;;;13.24;64.98;99421.44;4865528;28;98082;-58
2021/11/03 01:29:58;;;;;;;;;;;;;;;13.24;65.01;99421.44;4863786;28;127779;-58
2021/11/03 01:32:24;;;;;;;;;;;;;;;13.24;65.29;99426.84;4866480;28;126848;-66
2021/11/03 01:34:50;;;;;;;;;;;;;;;13.23;64.76;99420.66;4882163;28;113668;-58
2021/11/03 01:37:16;;;;;;;;;;;;;;;13.25;64.74;99423.06;4865116;28;117661;-66
2021/11/03 01:39:42;;;;;;;;;;;;;;;13.25;64.87;99420.34;4864887;28;99004;-59
2021/11/03 01:42:08;;;;;;;;;;;;;;;13.26;64.81;99421.94;4863256;28;127954;-66
2021/11/03 01:44:34;;;;;;;;;;;;;;;13.25;65.06;99423.06;4862042;28;112525;-66
2021/11/03 01:47:38;;;;;;;;;;;;;;;13.26;65.05;99414.63;4883402;28;116757;-58
2021/11/03 01:50:05;;;;;;;;;;;;;;;13.26;64.96;99413.81;4884535;28;98138;-58
2021/11/03 01:52:31;;;;;;;;;;;;;;;13.26;64.87;99417.31;4864265;28;116994;-58
2021/11/03 01:54:57;;;;;;;;;;;;;;;13.27;64.98;99420.81;4865221;28;127176;-57
2021/11/03 01:57:33;;;;;;;;;;;;;;;13.27;64.86;99421.63;4848446;28;98044;-57
2021/11/03 02:00:03;;;;;;;;;;;;;;;13.27;64.87;99423.53;4847101;28;98044;-58
2021/11/03 02:02:30;;;;;;;;;;;;;;;13.28;64.92;99430.53;4847295;28;120090;-58
2021/11/03 02:04:56;;;;;;;;;;;;;;;13.28;64.95;99433.25;4846823;28;98053;-66
2021/11/03 02:07:23;;;;;;;;;;;;;;;13.28;64.95;99427.81;4864326;28;117856;-58
2021/11/03 02:09:51;;;;;;;;;;;;;;;13.27;65.07;99426.25;4830702;28;117011;-58
2021/11/03 02:12:24;;;;;;;;;;;;;;;13.28;65.15;99435.94;4873911;28;98866;-57
2021/11/03 02:14:50;;;;;;;;;;;;;;;13.29;65.06;99444.88;4864698;28;100273;-66
2021/11/03 02:17:16;;;;;;;;;;;;;;;13.29;65.04;99444.88;4863308;28;117260;-61
2021/11/03 02:19:44;;;;;;;;;;;;;;;13.30;65.00;99446.47;4846988;28;98239;-66
2021/11/03 02:22:46;;;;;;;;;;;;;;;13.30;65.10;99449.19;4864310;28;98482;-59
2021/11/03 02:25:13;;;;;;;;;;;;;;;13.29;64.95;99453.81;4855384;28;98112;-58
2021/11/03 02:27:41;;;;;;;;;;;;;;;13.29;65.00;99445.69;4870778;28;98336;-57
2021/11/03 02:30:08;;;;;;;;;;;;;;;13.30;64.90;99452.69;4864748;28;125495;-57
2021/11/03 02:32:34;;;;;;;;;;;;;;;13.30;64.82;99455.41;4881075;28;103851;-66
2021/11/03 02:35:00;;;;;;;;;;;;;;;13.31;64.90;99450.78;4881025;28;97967;-58
2021/11/03 02:37:33;;;;;;;;;;;;;;;13.31;64.98;99450.78;4883234;28;97943;-65
2021/11/03 02:40:09;;;;;;;;;;;;;;;13.31;65.11;99448.88;4876453;28;98383;-66
2021/11/03 02:42:37;;;;;;;;;;;;;;;13.30;64.83;99444.56;4863762;28;98585;-66
2021/11/03 02:45:07;;;;;;;;;;;;;;;13.33;65.22;99448.56;4861034;28;98631;-57
2021/11/03 02:47:33;;;;;;;;;;;;;;;13.31;65.13;99440.75;4870199;28;99512;-66
2021/11/03 02:49:59;;;;;;;;;;;;;;;13.33;64.88;99443.16;4880518;28;120298;-58
2021/11/03 02:52:25;;;;;;;;;;;;;;;13.32;64.97;99436.91;4882895;28;98423;-66
2021/11/03 02:54:51;;;;;;;;;;;;;;;13.32;65.02;99442.34;4883343;28;98230;-66
2021/11/03 02:57:17;;;;;;;;;;;;;;;13.33;65.13;99440.44;4882324;28;102276;-58
2021/11/03 02:59:43;;;;;;;;;;;;;;;13.33;65.27;99441.25;4881180;28;98690;-66
2021/11/03 03:02:10;;;;;;;;;;;;;;;13.33;64.77;99440.44;4881926;28;104290;-58
2021/11/03 03:04:37;;;;;;;;;;;;;;;13.33;65.13;99427.72;4882736;28;98027;-66
2021/11/03 03:07:04;;;;;;;;;;;;;;;13.33;64.98;99430.44;4883735;28;97858;-58
2021/11/03 03:09:29;;;;;;;;;;;;;;;13.33;64.74;99426.94;4865088;28;111044;-66
2021/11/03 03:11:58;;;;;;;;;;;;;;;13.33;65.08;99424.22;4862884;28;128967;-66
2021/11/03 03:14:25;;;;;;;;;;;;;;;13.32;64.94;99428.81;4864571;28;97759;-66
2021/11/03 03:16:51;;;;;;;;;;;;;;;13.30;64.87;99425.63;4863696;28;97875;-57
2021/11/03 03:19:17;;;;;;;;;;;;;;;13.29;64.92;99434.06;4862680;28;97819;-58
2021/11/03 03:21:44;;;;;;;;;;;;;;;13.26;65.10;99430.84;4863512;28;98945;-66
2021/11/03 03:24:10;;;;;;;;;;;;;;;13.24;64.95;99443.09;4864376;28;98070;-57
2021/11/03 03:26:36;;;;;;;;;;;;;;;13.22;65.00;99451.50;4863696;28;97864;-66
2021/11/03 03:29:02;;;;;;;;;;;;;;;13.19;65.27;99444.00;4874354;28;125132;-57
2021/11/03 03:31:28;;;;;;;;;;;;;;;13.18;64.93;99441.59;4869451;28;98781;-66
2021/11/03 03:33:56;;;;;;;;;;;;;;;13.16;65.27;99443.81;4864254;28;128296;-58
2021/11/03 03:36:22;;;;;;;;;;;;;;;13.14;65.15;99448.75;4868915;28;110682;-58
2021/11/03 03:38:48;;;;;;;;;;;;;;;13.12;65.17;99449.03;4872161;28;98742;-66
2021/11/03 03:41:15;;;;;;;;;;;;;;;13.11;65.35;99449.34;4862920;28;98561;-58
2021/11/03 03:43:40;;;;;;;;;;;;;;;13.09;64.99;99451.59;4863508;28;97845;-66
2021/11/03 03:46:06;;;;;;;;;;;;;;;13.07;65.16;99451.06;4862538;28;118737;-66
2021/11/03 03:48:32;;;;;;;;;;;;;;;13.05;65.29;99454.09;4864209;28;102736;-66
2021/11/03 03:50:58;;;;;;;;;;;;;;;13.02;65.19;99462.81;4844373;28;127546;-66
2021/11/03 03:53:24;;;;;;;;;;;;;;;13.00;65.17;99465.81;4862883;28;105420;-59
2021/11/03 03:55:51;;;;;;;;;;;;;;;12.98;65.01;99464.53;4863449;28;116186;-66
2021/11/03 03:58:18;;;;;;;;;;;;;;;12.95;64.87;99463.25;4874880;28;98540;-66
2021/11/03 04:00:44;;;;;;;;;;;;;;;12.94;65.31;99461.66;4886205;28;98326;-57
2021/11/03 04:03:10;;;;;;;;;;;;;;;12.91;65.08;99464.16;4862277;28;123864;-57
2021/11/03 04:05:36;;;;;;;;;;;;;;;12.90;64.96;99468.00;4880270;28;98012;-57
2021/11/03 04:08:02;;;;;;;;;;;;;;;12.87;64.98;99466.69;4884443;28;98389;-58
2021/11/03 04:10:28;;;;;;;;;;;;;;;12.86;65.04;99462.38;4883513;28;125265;-66
2021/11/03 04:12:54;;;;;;;;;;;;;;;12.83;64.92;99463.00;4885578;28;98599;-57
2021/11/03 04:15:20;;;;;;;;;;;;;;;12.82;65.01;99469.50;4885153;28;116780;-57
2021/11/03 04:17:46;;;;;;;;;;;;;;;12.81;65.03;99465.22;4884369;28;124031;-57
2021/11/03 04:20:13;;;;;;;;;;;;;;;12.77;64.83;99462.31;4884197;28;128412;-66
2021/11/03 04:22:39;;;;;;;;;;;;;;;12.76;64.77;99465.31;4880233;28;98562;-65
2021/11/03 04:25:06;;;;;;;;;;;;;;;12.74;64.72;99464.84;4886171;28;97915;-66
2021/11/03 04:27:32;;;;;;;;;;;;;;;12.71;64.92;99474.34;4881992;28;111635;-66
2021/11/03 04:29:58;;;;;;;;;;;;;;;12.70;64.76;99480.88;4865659;28;105252;-66
2021/11/03 04:32:24;;;;;;;;;;;;;;;12.69;64.80;99479.28;4867003;28;98302;-66
2021/11/03 04:34:50;;;;;;;;;;;;;;;12.67;64.84;99477.97;4866721;28;98226;-65
2021/11/03 04:37:16;;;;;;;;;;;;;;;12.64;64.90;99478.56;4865840;28;98876;-57
2021/11/03 04:39:42;;;;;;;;;;;;;;;12.63;64.72;99477.78;4865009;28;126209;-58
2021/11/03 04:42:08;;;;;;;;;;;;;;;12.61;64.66;99474.56;4865006;28;121963;-58
2021/11/03 04:44:34;;;;;;;;;;;;;;;12.61;64.91;99484.59;4847382;28;117771;-66
2021/11/03 04:47:00;;;;;;;;;;;;;;;12.58;64.69;99488.72;4865369;28;98792;-59
2021/11/03 04:49:26;;;;;;;;;;;;;;;12.57;64.65;99478.19;4847175;28;117715;-58
2021/11/03 04:51:52;;;;;;;;;;;;;;;12.53;64.63;99486.91;4864708;28;127995;-58
2021/11/03 04:54:18;;;;;;;;;;;;;;;12.53;64.60;99481.50;4848584;28;102544;-65
2021/11/03 04:56:44;;;;;;;;;;;;;;;12.51;64.79;99483.72;4864968;28;98878;-66
2021/11/03 04:59:10;;;;;;;;;;;;;;;12.50;64.58;99481.31;4871577;28;128327;-66
2021/11/03 05:01:36;;;;;;;;;;;;;;;12.49;64.56;99485.91;4881344;28;127513;-66
2021/11/03 05:04:02;;;;;;;;;;;;;;;12.48;64.72;99484.31;4867039;28;103116;-58
2021/11/03 05:06:30;;;;;;;;;;;;;;;12.46;64.60;99489.25;4883883;28;99233;-58
2021/11/03 05:08:56;;;;;;;;;;;;;;;12.45;64.64;99484.13;4883492;28;98600;-58
2021/11/03 05:11:22;;;;;;;;;;;;;;;12.43;64.65;99483.63;4884914;28;97975;-66
2021/11/03 05:13:48;;;;;;;;;;;;;;;12.41;64.65;99478.50;4884134;28;108706;-58
2021/11/03 05:16:18;;;;;;;;;;;;;;;12.40;64.65;99479.63;4849917;28;115765;-66
2021/11/03 05:18:44;;;;;;;;;;;;;;;12.38;64.60;99487.25;4856672;28;98620;-57
2021/11/03 05:21:11;;;;;;;;;;;;;;;12.37;64.58;99484.84;4883642;28;127379;-66
2021/11/03 05:23:38;;;;;;;;;;;;;;;12.36;64.56;99492.13;4867179;28;98064;-66
2021/11/03 05:26:04;;;;;;;;;;;;;;;12.34;64.51;99486.25;4847457;28;99478;-66
2021/11/03 05:28:32;;;;;;;;;;;;;;;12.33;64.40;99483.84;4865569;28;128275;-66
2021/11/03 05:30:57;;;;;;;;;;;;;;;12.29;64.30;99476.31;4864553;28;97804;-66
2021/11/03 05:33:23;;;;;;;;;;;;;;;12.29;64.46;99484.44;4865502;28;97860;-66
2021/11/03 05:35:49;;;;;;;;;;;;;;;12.28;64.14;99487.44;4863992;28;127237;-65
2021/11/03 05:38:15;;;;;;;;;;;;;;;12.26;64.37;99485.06;4864512;28;98945;-66
2021/11/03 05:40:41;;;;;;;;;;;;;;;12.25;64.40;99488.03;4863382;28;126290;-66
2021/11/03 05:43:07;;;;;;;;;;;;;;;12.26;64.36;99495.03;4864651;28;97786;-66
2021/11/03 05:45:33;;;;;;;;;;;;;;;12.24;64.40;99492.66;4864337;28;98496;-66
2021/11/03 05:47:59;;;;;;;;;;;;;;;12.24;64.49;99502.66;4881529;28;98940;-66
2021/11/03 05:50:28;;;;;;;;;;;;;;;12.23;64.33;99509.19;4880498;28;126694;-66
2021/11/03 05:52:54;;;;;;;;;;;;;;;12.22;64.36;99502.97;4878147;28;98095;-65
2021/11/03 05:55:20;;;;;;;;;;;;;;;12.22;64.27;99505.69;4884708;28;118436;-66
2021/11/03 05:57:46;;;;;;;;;;;;;;;12.22;64.19;99502.97;4883025;28;116140;-67
2021/11/03 06:00:27;;;;;;;;;;;;;;;12.23;64.27;99506.47;4883755;28;97984;-66
2021/11/03 06:02:53;;;;;;;;;;;;;;;12.24;64.10;99505.38;4867344;28;106919;-66
2021/11/03 06:05:19;;;;;;;;;;;;;;;12.25;64.32;99501.56;4882859;28;129064;-66
2021/11/03 06:07:53;;;;;;;;;;;;;;;12.26;64.20;99503.16;4883045;28;128795;-66
2021/11/03 06:10:24;;;;;;;;;;;;;;;12.27;64.39;99505.56;4872147;28;114494;-66
2021/11/03 06:12:50;;;;;;;;;;;;;;;12.28;64.57;99507.16;4872460;28;97786;-66
2021/11/03 06:15:16;;;;;;;;;;;;;;;12.32;64.25;99509.25;4864249;28;120308;-66
2021/11/03 06:17:42;;;;;;;;;;;;;;;12.34;64.31;99512.44;4864178;28;101970;-66
2021/11/03 06:20:08;;;;;;;;;;;;;;;12.37;64.45;99511.84;4882220;28;126673;-66
2021/11/03 06:22:35;;;;;;;;;;;;;;;12.40;64.21;99513.97;4882331;28;98421;-66
2021/11/03 06:25:03;;;;;;;;;;;;;;;12.43;64.38;99508.75;4864296;28;98399;-66
2021/11/03 06:27:29;;;;;;;;;;;;;;;12.47;64.28;99512.44;4864023;28;98957;-66
2021/11/03 06:29:55;;;;;;;;;;;;;;;12.51;64.33;99516.16;4864327;28;98012;-66
2021/11/03 06:32:21;;;;;;;;;;;;;;;12.55;64.14;99519.06;4864087;28;98171;-65
2021/11/03 06:34:47;;;;;;;;;;;;;;;12.60;63.97;99523.53;4864188;28;98282;-58
2021/11/03 06:37:13;;;;;;;;;;;;;;;12.63;64.28;99522.94;4862939;28;129111;-65
2021/11/03 06:39:39;;;;;;;;;;;;;;;12.67;63.94;99524.72;4870759;28;119259;-57
2021/11/03 06:42:05;;;;;;;;;;;;;;;12.70;64.15;99524.13;4882793;28;99476;-66
2021/11/03 06:44:31;;;;;;;;;;;;;;;12.72;64.16;99519.19;4881776;28;98437;-66
2021/11/03 06:46:57;;;;;;;;;;;;;;;12.74;64.16;99535.94;4865977;28;118952;-66
2021/11/03 06:49:23;;;;;;;;;;;;;;;12.77;64.06;99534.50;4864693;28;98225;-65
2021/11/03 06:51:49;;;;;;;;;;;;;;;12.80;64.14;99533.91;4863813;28;98006;-66
2021/11/03 06:54:15;;;;;;;;;;;;;;;12.82;64.32;99539.81;4863449;28;127906;-66
2021/11/03 06:56:41;;;;;;;;;;;;;;;12.86;64.27;99548.94;4863570;28;104146;-66
2021/11/03 06:59:07;;;;;;;;;;;;;;;12.89;64.22;99545.63;4880443;28;104913;-66
2021/11/03 07:01:33;;;;;;;;;;;;;;;12.93;64.13;99548.50;4864148;28;98077;-66
2021/11/03 07:04:01;;;;;;;;;;;;;;;12.96;63.96;99556.81;4863736;28;123021;-66
2021/11/03 07:06:27;;;;;;;;;;;;;;;12.99;63.85;99556.19;4863613;28;99369;-66
2021/11/03 07:08:54;;;;;;;;;;;;;;;13.04;63.85;99555.28;4863724;28;126108;-57
2021/11/03 07:11:22;;;;;;;;;;;;;;;13.09;63.86;99574.13;4864381;28;97994;-66
2021/11/03 07:13:48;;;;;;;;;;;;;;;13.13;64.06;99566.19;4846969;28;98038;-58
2021/11/03 07:16:14;;;;;;;;;;;;;;;13.18;63.83;99563.38;4862494;28;129139;-57
2021/11/03 07:18:40;;;;;;;;;;;;;;;13.21;63.85;99563.56;4862714;28;98702;-58
2021/11/03 07:21:06;;;;;;;;;;;;;;;13.23;63.99;99564.06;4861682;28;117921;-58
2021/11/03 07:23:32;;;;;;;;;;;;;;;13.29;64.02;99569.38;4869709;28;126060;-57
2021/11/03 07:25:58;;;;;;;;;;;;;;;13.37;63.68;99574.06;4879627;28;114832;-57
2021/11/03 07:28:24;;;;;;;;;;;;;;;13.47;63.66;99574.59;4882703;28;98117;-59
2021/11/03 07:30:50;;;;;;;;;;;;;;;13.58;63.74;99577.84;4863649;28;99466;-57
2021/11/03 07:33:16;;;;;;;;;;;;;;;13.65;63.25;99566.59;4885816;28;98622;-57
2021/11/03 07:35:42;;;;;;;;;;;;;;;13.66;63.41;99571.69;4880735;28;117272;-57
2021/11/03 07:38:08;;;;;;;;;;;;;;;13.64;63.87;99582.06;4882528;28;98150;-58
2021/11/03 07:40:37;;;;;;;;;;;;;;;13.65;63.89;99583.66;4868091;28;97826;-58
2021/11/03 07:43:04;;;;;;;;;;;;;;;13.70;63.85;99571.88;4862170;28;98388;-57
2021/11/03 07:45:31;;;;;;;;;;;;;;;13.80;63.31;99574.34;4863033;28;98219;-58
2021/11/03 07:47:58;;;;;;;;;;;;;;;13.93;63.51;99567.25;4863636;28;98421;-57
2021/11/03 07:50:26;;;;;;;;;;;;;;;14.07;62.87;99576.09;4863077;28;98020;-58
2021/11/03 07:52:52;;;;;;;;;;;;;;;14.22;62.96;99566.72;4863149;28;98078;-57
2021/11/03 07:55:17;;;;;;;;;;;;;;;14.33;62.60;99565.34;4862562;28;128084;-57
2021/11/03 07:57:43;;;;;;;;;;;;;;;14.43;62.86;99567.78;4862259;28;109157;-57
2021/11/03 08:00:16;;;;;;;;;;;;;;;14.58;62.58;99577.41;4863142;28;97998;-58
2021/11/03 08:02:42;;;;;;;;;;;;;;;15.09;61.40;99567.78;4863760;28;98953;-57
2021/11/03 08:05:08;;;;;;;;;;;;;;;15.84;60.06;99559.41;4871494;28;99112;-57
2021/11/03 08:07:34;;;;;;;;;;;;;;;16.71;58.65;99561.75;4863092;28;105555;-58
2021/11/03 08:10:00;;;;;;;;;;;;;;;17.23;58.23;99559.47;4871449;28;98205;-58
2021/11/03 08:12:26;;;;;;;;;;;;;;;17.74;57.89;99556.59;4862554;28;101190;-57
2021/11/03 08:14:52;;;;;;;;;;;;;;;18.80;56.10;99553.06;4862459;28;98710;-58
2021/11/03 08:17:20;;;;;;;;;;;;;;;19.74;54.93;99549.88;4860737;28;128097;-58
2021/11/03 08:19:52;;;;;;;;;;;;;;;20.69;53.71;99547.13;4863066;28;97822;-59
2021/11/03 08:22:23;;;;;;;;;;;;;;;21.76;52.47;99552.06;4876775;28;98309;-58
2021/11/03 08:24:50;;;;;;;;;;;;;;;22.46;51.72;99561.91;4881483;28;98486;-58
2021/11/03 08:27:17;;;;;;;;;;;;;;;24.08;49.50;99568.22;4865497;28;97982;-58
2021/11/03 08:29:43;;;;;;;;;;;;;;;25.07;48.09;99561.84;4870787;28;98375;-58
2021/11/03 08:32:11;;;;;;;;;;;;;;;24.63;49.50;99573.81;4874146;28;98241;-58
2021/11/03 08:34:37;;;;;;;;;;;;;;;23.20;52.92;99575.13;4864758;28;98403;-66
2021/11/03 08:37:09;;;;;;;;;;;;;;;22.41;54.24;99569.66;4880430;28;112471;-66
2021/11/03 08:39:36;;;;;;;;;;;;;;;24.00;50.66;99566.59;4863599;28;98099;-66
2021/11/03 08:42:03;;;;;;;;;;;;;;;26.17;46.78;99568.88;4882911;28;119766;-67
2021/11/03 08:44:29;;;;;;;;;;;;;;;26.80;46.06;99567.31;4884171;28;108962;-66
2021/11/03 08:46:55;;;;;;;;;;;;;;;26.15;47.86;99572.06;4877179;28;121821;-58
2021/11/03 08:49:21;;;;;;;;;;;;;;;25.02;50.46;99569.72;4877579;28;97806;-58
2021/11/03 08:51:47;;;;;;;;;;;;;;;25.53;49.61;99571.53;4877227;28;126897;-58
2021/11/03 08:54:13;;;;;;;;;;;;;;;25.60;50.40;99557.75;4884603;28;109703;-66
2021/11/03 08:56:39;;;;;;;;;;;;;;;25.61;50.74;99562.88;4884482;28;98696;-66
2021/11/03 08:59:08;;;;;;;;;;;;;;;25.69;50.96;99560.91;4885773;28;97842;-67
2021/11/03 09:01:38;;;;;;;;;;;;;;;25.86;51.43;99551.13;4883283;28;119051;-67
2021/11/03 09:04:04;;;;;;;;;;;;;;;26.11;50.97;99549.19;4872606;28;99168;-58
2021/11/03 09:06:30;;;;;;;;;;;;;;;26.40;50.84;99547.19;4864447;28;127413;-58
2021/11/03 09:08:56;;;;;;;;;;;;;;;26.71;50.42;99547.56;4865206;28;117505;-67
2021/11/03 09:11:22;;;;;;;;;;;;;;;26.99;50.44;99545.91;4846562;28;128387;-59
2021/11/03 09:13:49;;;;;;;;;;;;;;;27.10;50.24;99544.72;4848267;28;98330;-67
2021/11/03 09:16:16;;;;;;;;;;;;;;;27.03;50.78;99544.69;4865718;28;106744;-67
2021/11/03 09:18:42;;;;;;;;;;;;;;;26.91;51.12;99545.13;4866195;28;98017;-58
2021/11/03 09:21:08;;;;;;;;;;;;;;;26.84;51.66;99543.22;4864551;28;123297;-66
2021/11/03 09:23:35;;;;;;;;;;;;;;;26.87;51.64;99547.91;4865964;28;99160;-66
2021/11/03 09:26:01;;;;;;;;;;;;;;;26.87;51.59;99533.31;4864889;28;98492;-57
2021/11/03 09:28:28;;;;;;;;;;;;;;;26.82;52.03;99526.22;4865224;28;98297;-58
2021/11/03 09:30:56;;;;;;;;;;;;;;;26.71;51.97;99525.47;4864771;28;119471;-66
2021/11/03 09:33:22;;;;;;;;;;;;;;;26.55;52.45;99534.19;4865046;28;117885;-58
2021/11/03 09:35:49;;;;;;;;;;;;;;;26.37;52.50;99533.38;4863381;28;128983;-67
2021/11/03 09:38:17;;;;;;;;;;;;;;;26.17;52.73;99521.94;4865083;28;97962;-58
2021/11/03 09:40:55;;;;;;;;;;;;;;;25.95;53.11;99521.97;4864544;28;115431;-66
2021/11/03 09:43:30;;;;;;;;;;;;;;;25.68;53.45;99515.19;4847446;28;118232;-66
2021/11/03 09:45:58;;;;;;;;;;;;;;;25.38;53.73;99507.25;4865300;28;98071;-59
2021/11/03 09:48:33;;;;;;;;;;;;;;;25.11;53.93;99502.06;4865192;28;97743;-58
2021/11/03 09:51:00;;;;;;;;;;;;;;;24.83;53.95;99505.44;4831975;28;98775;-66
2021/11/03 09:53:32;;;;;;;;;;;;;;;24.58;54.37;99499.81;4846985;28;98434;-66
2021/11/03 09:55:58;;;;;;;;;;;;;;;24.32;54.59;99506.28;4864456;28;98497;-66
2021/11/03 09:58:32;;;;;;;;;;;;;;;24.09;54.61;99512.03;4864802;28;97973;-57
2021/11/03 10:01:05;;;;;;;;;;;;;;;23.88;54.50;99495.34;4847351;28;98893;-66
2021/11/03 10:03:58;;;;;;;;;;;;;;;23.67;54.66;99504.97;4863871;28;98550;-62
2021/11/03 10:06:51;;;;;;;;;;;;;;;23.46;55.02;99500.03;4847198;28;116169;-57
2021/11/03 10:09:17;;;;;;;;;;;;;;;23.25;55.05;99503.31;4851046;28;98058;-57
2021/11/03 10:11:46;;;;;;;;;;;;;;;23.12;54.99;99506.72;4864481;28;108668;-66
2021/11/03 10:14:12;;;;;;;;;;;;;;;22.97;55.15;99503.00;4864828;28;116277;-66
2021/11/03 10:16:49;;;;;;;;;;;;;;;22.84;55.23;99494.19;4863580;28;127041;-58
2021/11/03 10:19:15;;;;;;;;;;;;;;;22.71;55.13;99499.09;4847430;28;97949;-66
2021/11/03 10:21:44;;;;;;;;;;;;;;;22.60;55.44;99502.84;4863984;28;98401;-66
2021/11/03 10:24:14;;;;;;;;;;;;;;;22.49;55.44;99505.47;4846578;28;113108;-66
2021/11/03 10:27:01;;;;;;;;;;;;;;;22.43;55.40;99501.44;4864028;28;97854;-66
2021/11/03 10:29:49;;;;;;;;;;;;;;;22.42;55.12;99499.88;4865197;28;97969;-58
2021/11/03 10:32:37;;;;;;;;;;;;;;;22.36;55.20;99498.59;4864770;28;98248;-58
2021/11/03 10:35:11;;;;;;;;;;;;;;;22.38;55.07;99496.28;4864573;28;98053;-66
2021/11/03 10:37:40;;;;;;;;;;;;;;;22.38;54.89;99494.31;4864786;28;97945;-58
2021/11/03 10:40:07;;;;;;;;;;;;;;;22.39;54.89;99495.91;4864644;28;98424;-66
2021/11/03 10:42:35;;;;;;;;;;;;;;;22.41;54.82;99493.59;4863673;28;98416;-58
2021/11/03 10:45:31;;;;;;;;;;;;;;;22.45;54.82;99499.13;4864625;28;97952;-66
2021/11/03 10:48:24;;;;;;;;;;;;;;;22.46;54.75;99487.00;4864361;28;98033;-66
2021/11/03 10:50:56;;;;;;;;;;;;;;;22.49;54.84;99486.25;4863852;28;97820;-59
2021/11/03 10:53:22;;;;;;;;;;;;;;;22.32;55.15;99481.28;4864086;28;98474;-65
2021/11/03 10:55:48;;;;;;;;;;;;;;;22.36;55.17;99473.88;4846313;28;103023;-66
2021/11/03 10:58:25;;;;;;;;;;;;;;;22.30;55.31;99478.91;4864030;28;98073;-58
2021/11/03 11:01:06;;;;;;;;;;;;;;;22.25;55.34;99465.53;4864105;28;97898;-57
2021/11/03 11:03:57;;;;;;;;;;;;;;;22.19;55.23;99466.97;4847419;28;98649;-66
2021/11/03 11:06:26;;;;;;;;;;;;;;;22.12;55.55;99462.13;4869356;28;98412;-58
2021/11/03 11:08:58;;;;;;;;;;;;;;;22.04;55.66;99460.44;4865649;28;105079;-58
2021/11/03 11:11:30;;;;;;;;;;;;;;;22.07;55.60;99465.19;4846807;28;98131;-57
2021/11/03 11:14:01;;;;;;;;;;;;;;;22.10;55.29;99460.94;4847381;28;98433;-58
2021/11/03 11:16:40;;;;;;;;;;;;;;;22.01;55.52;99472.19;4863500;28;99263;-67
2021/11/03 11:19:34;;;;;;;;;;;;;;;21.97;55.75;99469.38;4830670;28;121616;-58
2021/11/03 11:22:18;;;;;;;;;;;;;;;21.92;55.91;99479.84;4863820;28;98061;-58
2021/11/03 11:24:58;;;;;;;;;;;;;;;21.71;56.25;99474.81;4845181;28;124458;-67
2021/11/03 11:27:29;;;;;;;;;;;;;;;21.66;56.05;99472.38;4852888;28;98654;-66
2021/11/03 11:30:21;;;;;;;;;;;;;;;21.61;56.01;99476.19;4882385;28;98415;-57
2021/11/03 11:33:03;;;;;;;;;;;;;;;21.56;56.18;99481.97;4883337;28;97945;-58
2021/11/03 11:35:44;;;;;;;;;;;;;;;21.44;56.40;99480.22;4880271;28;98684;-58
2021/11/03 11:38:25;;;;;;;;;;;;;;;21.25;56.72;99472.78;4883814;28;98781;-66
2021/11/03 11:40:57;;;;;;;;;;;;;;;21.16;56.83;99474.16;4880459;28;98321;-57
2021/11/03 11:43:28;;;;;;;;;;;;;;;21.05;56.97;99465.72;4864420;28;113577;-57
2021/11/03 11:45:54;;;;;;;;;;;;;;;21.00;56.97;99466.81;4881149;28;98201;-57
2021/11/03 11:48:28;;;;;;;;;;;;;;;20.97;57.03;99467.53;4881535;28;111852;-57
2021/11/03 11:51:02;;;;;;;;;;;;;;;20.91;57.02;99465.47;4865814;28;98116;-65
2021/11/03 11:53:39;;;;;;;;;;;;;;;20.75;57.34;99460.03;4878255;28;98078;-57
2021/11/03 11:56:12;;;;;;;;;;;;;;;20.60;57.54;99456.22;4862947;28;120792;-57
2021/11/03 11:58:39;;;;;;;;;;;;;;;20.46;57.55;99450.41;4863020;28;98842;-57
2021/11/03 12:01:16;;;;;;;;;;;;;;;20.34;57.88;99437.63;4862994;28;98011;-65
2021/11/03 12:03:58;;;;;;;;;;;;;;;20.20;57.92;99431.81;4863875;28;97956;-57
2021/11/03 12:06:45;;;;;;;;;;;;;;;20.07;57.94;99431.16;4863808;28;98101;-65
2021/11/03 12:09:46;;;;;;;;;;;;;;;19.93;58.30;99428.88;4863711;28;97793;-65
2021/11/03 12:12:11;;;;;;;;;;;;;;;19.78;58.55;99422.28;4861096;28;98031;-57
2021/11/03 12:14:50;;;;;;;;;;;;;;;19.68;58.44;99422.00;4864217;28;97913;-58
2021/11/03 12:17:18;;;;;;;;;;;;;;;19.55;58.41;99413.09;4865300;28;97955;-65
2021/11/03 12:19:56;;;;;;;;;;;;;;;19.44;58.61;99404.63;4867999;28;98883;-65
2021/11/03 12:22:31;;;;;;;;;;;;;;;19.37;58.81;99398.97;4864997;28;98550;-58
2021/11/03 12:25:16;;;;;;;;;;;;;;;19.29;58.61;99394.47;4866969;28;98228;-60
2021/11/03 12:27:43;;;;;;;;;;;;;;;19.25;58.69;99402.56;4866253;28;98399;-58
2021/11/03 12:30:12;;;;;;;;;;;;;;;19.20;58.68;99405.56;4865624;28;97770;-65
2021/11/03 12:32:43;;;;;;;;;;;;;;;19.13;58.50;99387.03;4866465;28;98410;-65
2021/11/03 12:35:18;;;;;;;;;;;;;;;19.08;58.69;99397.44;4866192;28;98127;-65
2021/11/03 12:38:17;;;;;;;;;;;;;;;19.02;58.90;99394.19;4866258;28;98583;-65
2021/11/03 12:40:44;;;;;;;;;;;;;;;18.95;59.00;99390.47;4853784;28;97995;-57
2021/11/03 12:43:26;;;;;;;;;;;;;;;18.87;59.10;99393.00;4866134;28;98449;-65
2021/11/03 12:46:02;;;;;;;;;;;;;;;18.79;59.17;99388.47;4847769;28;98663;-65
2021/11/03 12:48:34;;;;;;;;;;;;;;;18.73;59.26;99389.06;4848215;28;99023;-59
2021/11/03 12:51:01;;;;;;;;;;;;;;;18.67;59.40;99377.59;4865359;28;121711;-66
2021/11/03 12:53:32;;;;;;;;;;;;;;;18.63;59.21;99401.25;4848496;28;98236;-65